createdAt,value
2018-05-27T00:00:33.068Z,94.80
2018-05-27T00:03:00.571Z,94.90
2018-05-27T00:05:28.834Z,95.10
2018-05-27T00:07:56.381Z,95.00
2018-05-27T00:10:23.874Z,95.20
2018-05-27T00:12:50.931Z,95.30
2018-05-27T00:15:18.786Z,95.50
2018-05-27T00:17:45.869Z,95.50
2018-05-27T00:20:12.918Z,95.50
2018-05-27T00:22:40.435Z,95.60
2018-05-27T00:25:07.927Z,95.70
2018-05-27T00:27:35.427Z,95.70
2018-05-27T00:30:02.957Z,95.80
2018-05-27T00:32:30.475Z,95.90
2018-05-27T00:34:57.977Z,95.90
2018-05-27T00:37:25.518Z,96.30
2018-05-27T00:39:53.016Z,96.00
2018-05-27T00:42:20.512Z,95.90
2018-05-27T00:44:48.024Z,95.90
2018-05-27T00:47:15.553Z,95.90
2018-05-27T00:49:43.045Z,96.00
2018-05-27T00:52:10.537Z,96.10
2018-05-27T00:54:38.042Z,96.20
2018-05-27T00:57:05.586Z,96.30
2018-05-27T00:59:33.860Z,96.50
2018-05-27T01:02:01.355Z,96.40
2018-05-27T01:04:28.904Z,96.40
2018-05-27T01:06:57.179Z,96.40
2018-05-27T01:09:24.676Z,96.40
2018-05-27T01:11:52.187Z,96.50
2018-05-27T01:14:20.465Z,96.60
2018-05-27T01:16:48.001Z,96.50
2018-05-27T01:19:15.506Z,96.50
2018-05-27T01:21:43.771Z,96.60
2018-05-27T01:24:11.331Z,96.60
2018-05-27T01:26:39.603Z,96.60
2018-05-27T01:29:07.104Z,96.60
2018-05-27T01:31:34.625Z,96.50
2018-05-27T01:34:02.914Z,96.80
2018-05-27T01:36:30.419Z,96.50
2018-05-27T01:38:57.946Z,96.50
2018-05-27T01:41:26.258Z,96.50
2018-05-27T01:43:53.755Z,96.50
2018-05-27T01:46:21.250Z,96.60
2018-05-27T01:48:48.775Z,96.70
2018-05-27T01:51:16.277Z,96.80
2018-05-27T01:53:43.782Z,96.90
2018-05-27T01:56:10.834Z,97.10
2018-05-27T01:58:37.890Z,97.40
2018-05-27T02:01:04.978Z,97.60
2018-05-27T02:03:32.026Z,97.70
2018-05-27T02:05:59.072Z,97.80
2018-05-27T02:08:26.897Z,98.10
2018-05-27T02:10:53.990Z,98.10
2018-05-27T02:13:21.800Z,98.20
2018-05-27T02:15:48.845Z,98.20
2018-05-27T02:18:15.940Z,98.20
2018-05-27T02:20:42.993Z,98.20
2018-05-27T02:23:10.042Z,98.20
2018-05-27T02:25:37.118Z,98.10
2018-05-27T02:28:04.166Z,98.10
2018-05-27T02:30:31.219Z,97.80
2018-05-27T02:32:58.283Z,97.70
2018-05-27T02:35:25.374Z,97.60
2018-05-27T02:37:52.450Z,97.40
2018-05-27T02:40:19.494Z,97.30
2018-05-27T02:42:46.592Z,97.10
2018-05-27T02:45:13.645Z,97.00
2018-05-27T02:47:40.694Z,96.70
2018-05-27T02:50:07.805Z,96.40
2018-05-27T02:52:35.627Z,96.10
2018-05-27T02:55:02.674Z,96.00
2018-05-27T02:57:29.758Z,95.90
2018-05-27T02:59:56.798Z,95.70
2018-05-27T03:02:23.842Z,95.60
2018-05-27T03:04:50.901Z,95.50
2018-05-27T03:07:18.086Z,95.40
2018-05-27T03:09:45.897Z,95.10
2018-05-27T03:12:12.970Z,95.10
2018-05-27T03:14:40.015Z,95.00
2018-05-27T03:17:07.101Z,94.80
2018-05-27T03:19:34.962Z,94.70
2018-05-27T03:22:02.010Z,94.70
2018-05-27T03:24:29.818Z,94.60
2018-05-27T03:26:56.906Z,94.60
2018-05-27T03:29:23.954Z,94.50
2018-05-27T03:31:51.001Z,94.60
2018-05-27T03:34:18.066Z,94.60
2018-05-27T03:36:45.128Z,94.70
2018-05-27T03:39:12.166Z,94.80
2018-05-27T03:41:39.225Z,94.80
2018-05-27T03:44:07.084Z,94.80
2018-05-27T03:46:34.186Z,94.80
2018-05-27T03:49:01.227Z,94.60
2018-05-27T03:51:28.310Z,94.50
2018-05-27T03:53:55.358Z,94.40
2018-05-27T03:56:22.394Z,94.20
2018-05-27T03:58:49.462Z,94.20
2018-05-27T04:01:16.511Z,94.10
2018-05-27T04:03:43.558Z,94.10
2018-05-27T04:06:16.552Z,94.10
2018-05-27T04:08:43.642Z,94.10
2018-05-27T04:11:10.698Z,94.00
2018-05-27T04:13:37.746Z,94.00
2018-05-27T04:16:05.598Z,93.70
2018-05-27T04:18:32.650Z,93.70
2018-05-27T04:21:00.467Z,93.30
2018-05-27T04:23:27.530Z,93.40
2018-05-27T04:25:54.585Z,93.20
2018-05-27T04:28:21.646Z,93.10
2018-05-27T04:30:48.735Z,93.10
2018-05-27T04:33:16.546Z,92.70
2018-05-27T04:35:43.590Z,92.80
2018-05-27T04:38:10.662Z,92.60
2018-05-27T04:40:37.710Z,92.20
2018-05-27T04:43:04.753Z,91.90
2018-05-27T04:45:31.821Z,91.80
2018-05-27T04:47:58.861Z,91.70
2018-05-27T04:50:25.901Z,91.60
2018-05-27T04:52:52.954Z,91.40
2018-05-27T04:55:20.009Z,91.30
2018-05-27T04:57:47.084Z,91.20
2018-05-27T05:00:14.901Z,91.00
2018-05-27T05:02:41.997Z,91.00
2018-05-27T05:05:09.801Z,90.50
2018-05-27T05:07:36.842Z,90.50
2018-05-27T05:10:03.917Z,90.50
2018-05-27T05:12:30.977Z,90.60
2018-05-27T05:14:58.047Z,90.50
2018-05-27T05:17:25.102Z,90.60
2018-05-27T05:19:52.201Z,90.90
2018-05-27T05:22:19.255Z,90.30
2018-05-27T05:24:46.302Z,89.70
2018-05-27T05:27:13.366Z,89.20
2018-05-27T05:29:40.457Z,89.00
2018-05-27T05:32:07.502Z,88.90
2018-05-27T05:34:34.541Z,88.70
2018-05-27T05:37:01.631Z,88.30
2018-05-27T05:39:29.438Z,88.10
2018-05-27T05:41:56.486Z,88.10
2018-05-27T05:44:23.539Z,87.60
2018-05-27T05:46:50.582Z,87.20
2018-05-27T05:49:17.673Z,86.70
2018-05-27T05:51:44.731Z,86.20
2018-05-27T05:54:12.553Z,85.50
2018-05-27T05:56:39.650Z,84.60
2018-05-27T05:59:06.698Z,84.00
2018-05-27T06:01:33.751Z,84.10
2018-05-27T06:04:00.817Z,84.50
2018-05-27T06:06:28.622Z,85.20
2018-05-27T06:08:55.667Z,85.20
2018-05-27T06:11:23.509Z,84.00
2018-05-27T06:13:50.550Z,84.00
2018-05-27T06:16:17.601Z,83.20
2018-05-27T06:18:44.682Z,82.60
2018-05-27T06:21:11.723Z,81.90
2018-05-27T06:23:38.778Z,81.90
2018-05-27T06:26:05.899Z,82.00
2018-05-27T06:28:32.962Z,81.60
2018-05-27T06:31:00.007Z,81.30
2018-05-27T06:33:27.134Z,81.40
2018-05-27T06:35:54.178Z,81.10
2018-05-27T06:38:21.233Z,80.60
2018-05-27T06:40:48.307Z,80.00
2018-05-27T06:43:15.364Z,78.40
2018-05-27T06:45:42.417Z,78.50
2018-05-27T06:48:09.474Z,77.90
2018-05-27T06:50:36.530Z,77.00
2018-05-27T06:53:03.652Z,76.50
2018-05-27T06:55:30.706Z,75.60
2018-05-27T06:57:58.512Z,75.70
2018-05-27T07:00:25.569Z,75.60
2018-05-27T07:02:52.649Z,75.70
2018-05-27T07:05:19.698Z,75.50
2018-05-27T07:07:46.752Z,75.40
2018-05-27T07:10:14.622Z,75.40
2018-05-27T07:12:41.667Z,75.40
2018-05-27T07:15:08.759Z,74.20
2018-05-27T07:17:35.838Z,73.30
2018-05-27T07:20:02.891Z,72.20
2018-05-27T07:22:29.933Z,71.50
2018-05-27T07:24:57.011Z,71.40
2018-05-27T07:27:24.054Z,71.70
2018-05-27T07:29:51.098Z,70.50
2018-05-27T07:32:18.207Z,70.50
2018-05-27T07:34:45.278Z,71.00
2018-05-27T07:37:12.325Z,71.60
2018-05-27T07:39:39.386Z,71.60
2018-05-27T07:42:06.471Z,71.70
2018-05-27T07:44:33.646Z,71.90
2018-05-27T07:47:00.689Z,71.60
2018-05-27T07:49:27.791Z,70.80
2018-05-27T07:51:54.890Z,70.30
2018-05-27T07:54:22.778Z,68.10
2018-05-27T07:56:49.844Z,68.00
2018-05-27T07:59:16.906Z,67.00
2018-05-27T08:01:43.998Z,66.60
2018-05-27T08:04:11.818Z,66.90
2018-05-27T08:06:38.918Z,66.80
2018-05-27T08:09:06.472Z,65.80
2018-05-27T08:11:33.522Z,66.30
2018-05-27T08:14:00.578Z,66.20
2018-05-27T08:16:27.679Z,65.60
2018-05-27T08:18:54.726Z,66.00
2018-05-27T08:21:21.842Z,66.50
2018-05-27T08:23:49.694Z,67.50
2018-05-27T08:26:16.738Z,67.50
2018-05-27T08:28:43.794Z,67.60
2018-05-27T08:31:10.873Z,67.20
2018-05-27T08:33:37.946Z,66.90
2018-05-27T08:36:05.030Z,67.10
2018-05-27T08:38:32.075Z,65.80
2018-05-27T08:40:59.138Z,65.80
2018-05-27T08:43:26.202Z,64.80
2018-05-27T08:45:53.315Z,65.40
2018-05-27T08:48:20.435Z,65.00
2018-05-27T08:50:47.494Z,64.50
2018-05-27T08:53:14.587Z,63.30
2018-05-27T08:55:41.658Z,62.30
2018-05-27T08:58:08.714Z,62.30
2018-05-27T09:00:35.786Z,62.20
2018-05-27T09:03:02.855Z,62.30
2018-05-27T09:05:29.963Z,62.50
2018-05-27T09:07:57.089Z,62.10
2018-05-27T09:10:24.141Z,61.80
2018-05-27T09:12:51.222Z,61.00
2018-05-27T09:15:19.091Z,59.60
2018-05-27T09:17:46.120Z,59.60
2018-05-27T09:20:13.962Z,59.40
2018-05-27T09:22:41.046Z,59.40
2018-05-27T09:25:08.883Z,59.60
2018-05-27T09:27:35.938Z,59.50
2018-05-27T09:30:03.070Z,59.50
2018-05-27T09:32:30.127Z,59.70
2018-05-27T09:34:57.205Z,59.80
2018-05-27T09:37:24.811Z,59.20
2018-05-27T09:39:51.892Z,58.50
2018-05-27T09:42:18.946Z,58.40
2018-05-27T09:44:46.026Z,58.00
2018-05-27T09:47:13.840Z,56.90
2018-05-27T09:49:40.899Z,56.80
2018-05-27T09:52:07.955Z,57.30
2018-05-27T09:54:35.043Z,57.20
2018-05-27T09:57:02.118Z,57.70
2018-05-27T09:59:29.161Z,57.80
2018-05-27T10:01:56.226Z,57.60
2018-05-27T10:04:23.279Z,57.30
2018-05-27T10:06:50.403Z,57.00
2018-05-27T10:09:18.270Z,56.00
2018-05-27T10:11:48.423Z,55.90
2018-05-27T10:14:15.498Z,55.60
2018-05-27T10:16:42.594Z,54.70
2018-05-27T10:19:09.709Z,55.30
2018-05-27T10:21:36.759Z,55.10
2018-05-27T10:24:03.822Z,54.70
2018-05-27T10:26:30.878Z,55.40
2018-05-27T10:28:57.931Z,55.70
2018-05-27T10:31:25.024Z,55.20
2018-05-27T10:33:52.078Z,55.90
2018-05-27T10:36:19.174Z,56.10
2018-05-27T10:38:46.255Z,56.30
2018-05-27T10:41:13.307Z,56.70
2018-05-27T10:43:40.384Z,57.20
2018-05-27T10:46:08.237Z,58.30
2018-05-27T10:48:35.319Z,58.20
2018-05-27T10:51:02.378Z,58.70
2018-05-27T10:53:29.461Z,59.20
2018-05-27T10:55:56.502Z,59.60
2018-05-27T10:58:23.689Z,59.40
2018-05-27T11:00:50.743Z,59.40
2018-05-27T11:03:17.802Z,58.50
2018-05-27T11:05:45.468Z,57.90
2018-05-27T11:08:12.523Z,57.30
2018-05-27T11:10:39.609Z,56.40
2018-05-27T11:19:49.733Z,56.00
2018-05-27T11:22:16.842Z,55.60
2018-05-27T11:24:43.890Z,55.70
2018-05-27T11:27:10.974Z,55.50
2018-05-27T11:29:38.026Z,55.50
2018-05-27T11:32:05.088Z,55.20
2018-05-27T11:34:32.910Z,54.60
2018-05-27T11:36:59.984Z,54.60
2018-05-27T11:39:27.075Z,54.30
2018-05-27T11:41:54.128Z,54.80
2018-05-27T11:44:21.182Z,54.50
2018-05-27T11:46:48.264Z,55.00
2018-05-27T11:49:15.311Z,55.20
2018-05-27T11:51:42.362Z,56.50
2018-05-27T11:54:09.551Z,57.30
2018-05-27T11:56:36.599Z,55.80
2018-05-27T11:59:04.430Z,55.10
2018-05-27T12:01:31.538Z,55.40
2018-05-27T12:03:58.593Z,55.60
2018-05-27T12:06:25.640Z,55.80
2018-05-27T12:08:52.706Z,55.50
2018-05-27T12:11:19.753Z,56.00
2018-05-27T12:13:46.794Z,55.80
2018-05-27T12:16:13.858Z,55.40
2018-05-27T12:18:40.898Z,55.10
2018-05-27T12:21:07.938Z,54.60
2018-05-27T12:23:35.027Z,53.60
2018-05-27T12:26:02.082Z,53.70
2018-05-27T12:28:29.161Z,53.70
2018-05-27T12:30:56.282Z,53.80
2018-05-27T12:33:23.334Z,54.00
2018-05-27T12:35:50.378Z,54.50
2018-05-27T12:38:17.451Z,54.30
2018-05-27T12:40:44.714Z,55.10
2018-05-27T12:43:11.790Z,55.60
2018-05-27T12:45:38.902Z,56.70
2018-05-27T12:48:05.963Z,57.60
2018-05-27T12:50:33.025Z,58.10
2018-05-27T12:53:00.878Z,58.90
2018-05-27T12:55:27.966Z,58.90
2018-05-27T12:57:55.029Z,59.00
2018-05-27T13:00:22.151Z,59.10
2018-05-27T13:02:49.408Z,59.50
2018-05-27T13:05:17.222Z,60.30
2018-05-27T13:07:44.340Z,60.20
2018-05-27T13:10:11.384Z,61.00
2018-05-27T13:12:39.208Z,61.80
2018-05-27T13:15:06.294Z,61.80
2018-05-27T13:17:33.378Z,61.60
2018-05-27T13:20:00.455Z,61.60
2018-05-27T13:22:27.554Z,61.50
2018-05-27T13:24:55.368Z,61.80
2018-05-27T13:27:22.498Z,61.80
2018-05-27T13:29:49.551Z,62.10
2018-05-27T13:32:16.611Z,62.60
2018-05-27T13:34:43.707Z,63.40
2018-05-27T13:37:10.760Z,63.80
2018-05-27T13:39:38.586Z,65.10
2018-05-27T13:42:05.723Z,65.00
2018-05-27T13:44:32.819Z,65.50
2018-05-27T13:46:59.879Z,65.70
2018-05-27T13:49:26.946Z,66.10
2018-05-27T13:51:53.991Z,65.80
2018-05-27T13:54:21.854Z,66.10
2018-05-27T13:56:48.902Z,66.10
2018-05-27T13:59:16.721Z,65.90
2018-05-27T14:01:43.833Z,65.90
2018-05-27T14:04:11.639Z,66.00
2018-05-27T14:06:38.678Z,65.90
2018-05-27T14:09:06.055Z,65.80
2018-05-27T14:11:33.142Z,67.00
2018-05-27T14:14:00.305Z,66.50
2018-05-27T14:16:27.525Z,66.70
2018-05-27T14:18:54.593Z,66.50
2018-05-27T14:21:21.668Z,65.70
2018-05-27T14:23:48.790Z,65.10
2018-05-27T14:26:15.830Z,64.80
2018-05-27T14:28:42.882Z,65.80
2018-05-27T14:31:10.007Z,65.80
2018-05-27T14:33:37.079Z,65.40
2018-05-27T14:36:04.138Z,64.50
2018-05-27T14:38:31.215Z,64.80
2018-05-27T14:40:58.362Z,64.10
2018-05-27T14:43:25.477Z,63.60
2018-05-27T14:45:52.549Z,63.80
2018-05-27T14:48:20.362Z,64.10
2018-05-27T14:50:47.481Z,64.10
2018-05-27T14:53:15.352Z,65.40
2018-05-27T14:55:42.478Z,65.30
2018-05-27T14:58:09.531Z,64.90
2018-05-27T15:00:36.614Z,63.90
2018-05-27T15:03:03.658Z,63.40
2018-05-27T15:05:30.711Z,64.10
2018-05-27T15:07:57.810Z,64.10
2018-05-27T15:10:24.864Z,64.40
2018-05-27T15:12:51.919Z,64.00
2018-05-27T15:15:19.024Z,64.00
2018-05-27T15:17:46.098Z,63.20
2018-05-27T15:20:13.150Z,63.00
2018-05-27T15:22:40.238Z,62.50
2018-05-27T15:25:07.309Z,61.90
2018-05-27T15:27:35.170Z,61.60
2018-05-27T15:30:02.347Z,61.40
2018-05-27T15:32:29.402Z,61.10
2018-05-27T15:34:56.517Z,60.80
2018-05-27T15:37:24.482Z,59.40
2018-05-27T15:39:51.492Z,59.40
2018-05-27T15:42:18.555Z,59.40
2018-05-27T15:44:45.800Z,58.80
2018-05-27T15:47:12.928Z,58.40
2018-05-27T15:49:39.978Z,58.50
2018-05-27T15:52:07.034Z,58.30
2018-05-27T15:54:34.138Z,57.30
2018-05-27T15:57:01.223Z,56.50
2018-05-27T15:59:28.279Z,55.70
2018-05-27T16:01:55.510Z,55.10
2018-05-27T16:04:23.406Z,54.40
2018-05-27T16:06:50.454Z,54.40
2018-05-27T16:09:17.583Z,53.90
2018-05-27T16:11:45.406Z,53.90
2018-05-27T16:14:12.530Z,53.90
2018-05-27T16:16:39.672Z,54.00
2018-05-27T16:19:06.734Z,53.60
2018-05-27T16:21:33.908Z,53.20
2018-05-27T16:24:01.047Z,52.80
2018-05-27T16:26:28.114Z,52.40
2018-05-27T16:28:55.228Z,51.30
2018-05-27T16:31:22.310Z,51.20
2018-05-27T16:33:49.402Z,50.70
2018-05-27T16:36:17.245Z,54.10
2018-05-27T16:38:44.398Z,54.10
2018-05-27T16:41:11.450Z,55.30
2018-05-27T16:43:38.594Z,56.00
2018-05-27T16:46:05.667Z,56.40
2018-05-27T16:48:33.501Z,58.30
2018-05-27T16:51:00.598Z,57.70
2018-05-27T16:53:28.406Z,59.50
2018-05-27T16:55:55.458Z,59.40
2018-05-27T16:58:22.541Z,59.90
2018-05-27T17:00:49.587Z,59.80
2018-05-27T17:03:16.629Z,59.40
2018-05-27T17:05:43.685Z,58.90
2018-05-27T17:08:10.725Z,58.40
2018-05-27T17:10:38.586Z,58.00
2018-05-27T17:13:05.892Z,57.90
2018-05-27T17:15:32.941Z,57.80
2018-05-27T17:18:00.031Z,58.10
2018-05-27T17:20:27.108Z,58.10
2018-05-27T17:22:54.197Z,58.10
2018-05-27T17:25:21.248Z,58.20
2018-05-27T17:27:48.308Z,58.50
2018-05-27T17:30:15.671Z,58.30
2018-05-27T17:32:42.840Z,59.10
2018-05-27T17:35:09.887Z,59.20
2018-05-27T17:37:36.958Z,59.80
2018-05-27T17:40:04.447Z,60.40
2018-05-27T17:42:31.490Z,60.10
2018-05-27T17:44:58.597Z,60.50
2018-05-27T17:47:25.725Z,60.10
2018-05-27T17:49:52.794Z,60.70
2018-05-27T17:52:20.282Z,60.70
2018-05-27T17:54:47.814Z,61.30
2018-05-27T17:57:14.859Z,61.30
2018-05-27T17:59:41.905Z,61.70
2018-05-27T18:02:09.523Z,62.10
2018-05-27T18:04:36.573Z,62.20
2018-05-27T18:07:03.618Z,62.70
2018-05-27T18:09:30.735Z,63.30
2018-05-27T18:18:40.543Z,63.60
2018-05-27T18:21:07.582Z,63.80
2018-05-27T18:23:34.624Z,63.80
2018-05-27T18:26:02.232Z,62.50
2018-05-27T18:28:29.786Z,59.20
2018-05-27T18:30:56.842Z,58.50
2018-05-27T18:33:24.347Z,57.80
2018-05-27T18:35:51.920Z,57.40
2018-05-27T18:38:19.452Z,57.40
2018-05-27T18:40:47.723Z,57.30
2018-05-27T18:43:15.213Z,57.30
2018-05-27T18:45:42.766Z,56.30
2018-05-27T18:48:10.267Z,56.60
2018-05-27T18:50:37.766Z,55.90
2018-05-27T18:53:05.279Z,56.20
2018-05-27T18:55:32.771Z,56.30
2018-05-27T18:58:00.283Z,56.80
2018-05-27T19:00:27.770Z,57.00
2018-05-27T19:02:56.268Z,57.40
2018-05-27T19:05:23.820Z,57.70
2018-05-27T19:07:51.310Z,58.00
2018-05-27T19:10:19.566Z,58.30
2018-05-27T19:12:47.147Z,58.30
2018-05-27T19:15:14.638Z,58.60
2018-05-27T19:17:42.132Z,58.60
2018-05-27T19:20:09.662Z,58.50
2018-05-27T19:22:37.158Z,58.60
2018-05-27T19:25:04.667Z,58.80
2018-05-27T19:27:32.206Z,59.00
2018-05-27T19:29:59.704Z,58.90
2018-05-27T19:32:27.195Z,58.70
2018-05-27T19:34:54.702Z,58.50
2018-05-27T19:37:22.951Z,58.00
2018-05-27T19:39:50.499Z,58.00
2018-05-27T19:46:40.573Z,57.80
2018-05-27T19:49:08.081Z,57.70
2018-05-27T19:51:35.593Z,57.70
2018-05-27T19:54:03.165Z,57.70
2018-05-27T19:56:30.666Z,57.60
2018-05-27T19:58:58.150Z,57.40
2018-05-27T20:01:25.678Z,57.30
2018-05-27T20:03:53.166Z,57.50
2018-05-27T20:06:20.647Z,57.30
2018-05-27T20:08:48.939Z,57.70
2018-05-27T20:11:16.418Z,57.70
2018-05-27T20:13:43.983Z,57.50
2018-05-27T20:16:11.466Z,57.50
2018-05-27T20:18:38.955Z,57.50
2018-05-27T20:21:06.481Z,57.50
2018-05-27T20:23:33.970Z,57.40
2018-05-27T20:26:01.463Z,57.50
2018-05-27T20:28:28.978Z,57.60
2018-05-27T20:30:56.459Z,57.70
2018-05-27T20:33:24.710Z,57.80
2018-05-27T20:35:52.232Z,57.80
2018-05-27T20:38:19.719Z,57.90
2018-05-27T20:40:47.207Z,58.10
2018-05-27T20:43:14.742Z,58.10
2018-05-27T20:45:42.226Z,58.40
2018-05-27T20:48:09.706Z,58.50
2018-05-27T20:50:37.266Z,58.70
2018-05-27T20:53:05.514Z,59.10
2018-05-27T20:55:33.007Z,59.10
2018-05-27T20:58:00.511Z,59.50
2018-05-27T21:00:28.007Z,59.70
2018-05-27T21:02:55.546Z,60.00
2018-05-27T21:05:23.037Z,60.50
2018-05-27T21:07:51.294Z,61.70
2018-05-27T21:10:18.790Z,62.40
2018-05-27T21:12:46.274Z,62.10
2018-05-27T21:15:13.791Z,62.60
2018-05-27T21:17:41.278Z,62.90
2018-05-27T21:20:08.770Z,63.70
2018-05-27T21:22:36.329Z,63.90
2018-05-27T21:25:03.778Z,64.10
2018-05-27T21:27:31.340Z,64.60
2018-05-27T21:29:58.827Z,65.00
2018-05-27T21:32:26.319Z,65.30
2018-05-27T21:34:54.630Z,66.00
2018-05-27T21:37:22.127Z,66.00
2018-05-27T21:39:49.624Z,66.10
2018-05-27T21:42:17.973Z,66.30
2018-05-27T21:44:45.463Z,66.30
2018-05-27T21:47:13.722Z,66.80
2018-05-27T21:49:41.246Z,66.70
2018-05-27T21:52:08.736Z,66.70
2018-05-27T21:54:36.234Z,66.60
2018-05-27T21:57:03.779Z,66.40
2018-05-27T21:59:31.270Z,66.30
2018-05-27T22:01:58.758Z,66.30
2018-05-27T22:04:26.334Z,66.40
2018-05-27T22:06:55.142Z,66.00
2018-05-27T22:09:22.819Z,66.10
2018-05-27T22:11:51.098Z,65.90
2018-05-27T22:14:18.594Z,65.90
2018-05-27T22:16:46.102Z,65.90
2018-05-27T22:19:13.643Z,65.90
2018-05-27T22:21:41.135Z,66.00
2018-05-27T22:24:09.392Z,66.20
2018-05-27T22:26:36.922Z,66.20
2018-05-27T22:29:04.415Z,66.30
2018-05-27T22:31:31.907Z,66.30
2018-05-27T22:33:59.443Z,66.30
2018-05-27T22:36:26.926Z,66.30
2018-05-27T22:38:54.414Z,66.40
2018-05-27T22:41:21.955Z,66.40
2018-05-27T22:43:49.447Z,66.50
2018-05-27T22:46:16.936Z,66.60
2018-05-27T22:48:44.438Z,66.90
2018-05-27T22:51:11.955Z,67.00
2018-05-27T22:53:39.478Z,67.30
2018-05-27T22:56:06.971Z,67.50
2018-05-27T22:58:34.464Z,67.90
2018-05-27T23:01:02.756Z,68.10
2018-05-27T23:03:30.293Z,68.00
2018-05-27T23:05:57.782Z,68.50
2018-05-27T23:08:25.266Z,68.50
2018-05-27T23:10:52.778Z,68.60
2018-05-27T23:13:20.262Z,68.90
2018-05-27T23:15:47.762Z,68.80
2018-05-27T23:18:15.275Z,68.90
2018-05-27T23:20:43.031Z,69.10
2018-05-27T23:23:11.291Z,69.10
2018-05-27T23:25:38.792Z,69.10
2018-05-27T23:28:06.286Z,69.20
2018-05-27T23:30:33.818Z,69.20
2018-05-27T23:33:01.363Z,69.40
2018-05-27T23:35:29.622Z,69.50
2018-05-27T23:37:57.142Z,69.50
2018-05-27T23:40:24.635Z,69.60
2018-05-27T23:42:52.127Z,69.50
2018-05-27T23:45:19.630Z,69.80
2018-05-27T23:47:47.130Z,70.10
2018-05-27T23:50:14.704Z,70.50
2018-05-27T23:52:42.978Z,71.00
2018-05-27T23:55:10.462Z,71.00
2018-05-27T23:57:38.002Z,71.10
